sensor_id;sensor_type;location;lat;lon;timestamp;P1;durP1;ratioP1;P2;durP2;ratioP2
15936;SDS011;9163;48.818;8.976;2023-05-24T00:01:35;6.37;;;3.33;;
15936;SDS011;9163;48.818;8.976;2023-05-24T00:04:02;5.63;;;3.60;;
15936;SDS011;9163;48.818;8.976;2023-05-24T00:06:30;6.87;;;3.37;;
15936;SDS011;9163;48.818;8.976;2023-05-24T00:08:59;5.63;;;3.73;;
15936;SDS011;9163;48.818;8.976;2023-05-24T00:11:26;7.73;;;3.43;;
15936;SDS011;9163;48.818;8.976;2023-05-24T00:13:53;6.70;;;3.77;;
15936;SDS011;9163;48.818;8.976;2023-05-24T00:16:22;4.80;;;3.53;;
15936;SDS011;9163;48.818;8.976;2023-05-24T00:18:49;6.50;;;3.70;;
15936;SDS011;9163;48.818;8.976;2023-05-24T00:21:17;6.03;;;3.80;;
15936;SDS011;9163;48.818;8.976;2023-05-24T00:23:44;7.73;;;4.07;;
15936;SDS011;9163;48.818;8.976;2023-05-24T00:26:11;5.93;;;3.80;;
15936;SDS011;9163;48.818;8.976;2023-05-24T00:28:39;6.40;;;3.73;;
15936;SDS011;9163;48.818;8.976;2023-05-24T00:31:06;5.50;;;3.67;;
15936;SDS011;9163;48.818;8.976;2023-05-24T00:33:34;6.03;;;3.63;;
15936;SDS011;9163;48.818;8.976;2023-05-24T00:36:02;6.13;;;3.90;;
15936;SDS011;9163;48.818;8.976;2023-05-24T00:38:29;8.23;;;3.80;;
15936;SDS011;9163;48.818;8.976;2023-05-24T00:40:56;7.23;;;3.43;;
15936;SDS011;9163;48.818;8.976;2023-05-24T00:43:25;6.17;;;4.30;;
15936;SDS011;9163;48.818;8.976;2023-05-24T00:45:58;11.63;;;4.10;;
15936;SDS011;9163;48.818;8.976;2023-05-24T00:48:41;8.83;;;4.00;;
15936;SDS011;9163;48.818;8.976;2023-05-24T00:51:10;5.17;;;3.40;;
15936;SDS011;9163;48.818;8.976;2023-05-24T00:53:39;9.17;;;3.70;;
15936;SDS011;9163;48.818;8.976;2023-05-24T00:56:10;8.27;;;3.97;;
15936;SDS011;9163;48.818;8.976;2023-05-24T00:58:38;9.27;;;3.90;;
15936;SDS011;9163;48.818;8.976;2023-05-24T01:01:06;8.80;;;3.73;;
15936;SDS011;9163;48.818;8.976;2023-05-24T01:03:34;9.63;;;3.93;;
15936;SDS011;9163;48.818;8.976;2023-05-24T01:06:04;5.60;;;3.57;;
15936;SDS011;9163;48.818;8.976;2023-05-24T01:08:37;5.33;;;3.53;;
15936;SDS011;9163;48.818;8.976;2023-05-24T01:11:16;7.13;;;3.70;;
15936;SDS011;9163;48.818;8.976;2023-05-24T01:13:53;8.37;;;3.90;;
15936;SDS011;9163;48.818;8.976;2023-05-24T01:16:30;8.33;;;4.00;;
15936;SDS011;9163;48.818;8.976;2023-05-24T01:19:04;5.70;;;3.63;;
15936;SDS011;9163;48.818;8.976;2023-05-24T01:21:45;6.53;;;3.90;;
15936;SDS011;9163;48.818;8.976;2023-05-24T01:24:24;6.67;;;4.10;;
15936;SDS011;9163;48.818;8.976;2023-05-24T01:27:01;8.00;;;4.00;;
15936;SDS011;9163;48.818;8.976;2023-05-24T01:29:32;8.27;;;4.07;;
15936;SDS011;9163;48.818;8.976;2023-05-24T01:32:01;10.07;;;4.30;;
15936;SDS011;9163;48.818;8.976;2023-05-24T01:34:28;8.20;;;4.23;;
15936;SDS011;9163;48.818;8.976;2023-05-24T01:36:56;11.60;;;4.40;;
15936;SDS011;9163;48.818;8.976;2023-05-24T01:39:27;11.40;;;4.30;;
15936;SDS011;9163;48.818;8.976;2023-05-24T01:41:58;8.67;;;4.23;;
15936;SDS011;9163;48.818;8.976;2023-05-24T01:44:33;8.93;;;4.07;;
15936;SDS011;9163;48.818;8.976;2023-05-24T01:47:08;7.57;;;4.03;;
15936;SDS011;9163;48.818;8.976;2023-05-24T01:49:46;8.37;;;4.00;;
15936;SDS011;9163;48.818;8.976;2023-05-24T01:52:18;8.63;;;3.97;;
15936;SDS011;9163;48.818;8.976;2023-05-24T01:54:51;8.80;;;3.90;;
15936;SDS011;9163;48.818;8.976;2023-05-24T01:57:20;11.57;;;4.20;;
15936;SDS011;9163;48.818;8.976;2023-05-24T01:59:49;10.20;;;4.23;;
15936;SDS011;9163;48.818;8.976;2023-05-24T02:02:18;7.53;;;4.07;;
15936;SDS011;9163;48.818;8.976;2023-05-24T02:04:45;9.53;;;4.30;;
15936;SDS011;9163;48.818;8.976;2023-05-24T02:07:13;8.00;;;3.93;;
15936;SDS011;9163;48.818;8.976;2023-05-24T02:09:40;10.90;;;4.30;;
15936;SDS011;9163;48.818;8.976;2023-05-24T02:12:08;11.97;;;4.57;;
15936;SDS011;9163;48.818;8.976;2023-05-24T02:14:37;9.67;;;4.43;;
15936;SDS011;9163;48.818;8.976;2023-05-24T02:17:07;10.17;;;4.40;;
15936;SDS011;9163;48.818;8.976;2023-05-24T02:19:34;8.57;;;4.27;;
15936;SDS011;9163;48.818;8.976;2023-05-24T02:22:02;10.20;;;4.17;;
15936;SDS011;9163;48.818;8.976;2023-05-24T02:24:30;9.67;;;4.43;;
15936;SDS011;9163;48.818;8.976;2023-05-24T02:26:57;9.77;;;4.83;;
15936;SDS011;9163;48.818;8.976;2023-05-24T02:29:25;9.30;;;4.67;;
15936;SDS011;9163;48.818;8.976;2023-05-24T02:31:54;8.77;;;4.10;;
15936;SDS011;9163;48.818;8.976;2023-05-24T02:34:21;10.23;;;4.20;;
15936;SDS011;9163;48.818;8.976;2023-05-24T02:36:48;10.47;;;4.67;;
15936;SDS011;9163;48.818;8.976;2023-05-24T02:39:16;12.13;;;4.53;;
15936;SDS011;9163;48.818;8.976;2023-05-24T02:41:43;8.90;;;4.20;;
15936;SDS011;9163;48.818;8.976;2023-05-24T02:44:10;12.87;;;4.40;;
15936;SDS011;9163;48.818;8.976;2023-05-24T02:46:37;10.30;;;4.60;;
15936;SDS011;9163;48.818;8.976;2023-05-24T02:49:06;10.67;;;4.87;;
15936;SDS011;9163;48.818;8.976;2023-05-24T02:51:34;8.33;;;4.40;;
15936;SDS011;9163;48.818;8.976;2023-05-24T02:54:02;8.97;;;4.20;;
15936;SDS011;9163;48.818;8.976;2023-05-24T02:56:30;11.77;;;4.23;;
15936;SDS011;9163;48.818;8.976;2023-05-24T02:58:57;10.17;;;3.93;;
15936;SDS011;9163;48.818;8.976;2023-05-24T03:01:24;10.83;;;3.83;;
15936;SDS011;9163;48.818;8.976;2023-05-24T03:03:51;11.33;;;4.43;;
15936;SDS011;9163;48.818;8.976;2023-05-24T03:06:20;9.10;;;4.53;;
15936;SDS011;9163;48.818;8.976;2023-05-24T03:08:47;10.80;;;4.03;;
15936;SDS011;9163;48.818;8.976;2023-05-24T03:11:15;9.53;;;4.17;;
15936;SDS011;9163;48.818;8.976;2023-05-24T03:13:46;8.33;;;4.37;;
15936;SDS011;9163;48.818;8.976;2023-05-24T03:16:13;10.63;;;4.53;;
15936;SDS011;9163;48.818;8.976;2023-05-24T03:18:41;11.50;;;4.30;;
15936;SDS011;9163;48.818;8.976;2023-05-24T03:21:08;8.30;;;4.23;;
15936;SDS011;9163;48.818;8.976;2023-05-24T03:23:37;10.20;;;4.33;;
15936;SDS011;9163;48.818;8.976;2023-05-24T03:26:05;9.57;;;4.50;;
15936;SDS011;9163;48.818;8.976;2023-05-24T03:28:32;10.73;;;4.47;;
15936;SDS011;9163;48.818;8.976;2023-05-24T03:31:00;9.40;;;4.27;;
15936;SDS011;9163;48.818;8.976;2023-05-24T03:33:27;10.23;;;4.80;;
15936;SDS011;9163;48.818;8.976;2023-05-24T03:35:54;10.70;;;4.27;;
15936;SDS011;9163;48.818;8.976;2023-05-24T03:38:21;8.93;;;4.33;;
15936;SDS011;9163;48.818;8.976;2023-05-24T03:40:50;9.83;;;4.20;;
15936;SDS011;9163;48.818;8.976;2023-05-24T03:43:17;10.73;;;4.60;;
15936;SDS011;9163;48.818;8.976;2023-05-24T03:45:45;11.37;;;4.50;;
15936;SDS011;9163;48.818;8.976;2023-05-24T03:48:12;8.70;;;4.27;;
15936;SDS011;9163;48.818;8.976;2023-05-24T03:50:40;9.03;;;4.63;;
15936;SDS011;9163;48.818;8.976;2023-05-24T03:53:07;8.80;;;4.40;;
15936;SDS011;9163;48.818;8.976;2023-05-24T03:55:34;10.63;;;4.80;;
15936;SDS011;9163;48.818;8.976;2023-05-24T03:58:03;7.90;;;4.33;;
15936;SDS011;9163;48.818;8.976;2023-05-24T04:00:30;8.97;;;4.40;;
15936;SDS011;9163;48.818;8.976;2023-05-24T04:02:57;11.00;;;4.53;;
15936;SDS011;9163;48.818;8.976;2023-05-24T04:05:25;10.83;;;4.17;;
15936;SDS011;9163;48.818;8.976;2023-05-24T04:07:54;8.67;;;4.33;;
15936;SDS011;9163;48.818;8.976;2023-05-24T04:10:21;10.50;;;4.43;;
15936;SDS011;9163;48.818;8.976;2023-05-24T04:12:48;10.53;;;5.03;;
15936;SDS011;9163;48.818;8.976;2023-05-24T04:15:17;11.37;;;4.63;;
15936;SDS011;9163;48.818;8.976;2023-05-24T04:17:44;11.20;;;4.43;;
15936;SDS011;9163;48.818;8.976;2023-05-24T04:20:12;10.20;;;4.33;;
15936;SDS011;9163;48.818;8.976;2023-05-24T04:22:39;11.47;;;4.47;;
15936;SDS011;9163;48.818;8.976;2023-05-24T04:25:07;10.10;;;4.50;;
15936;SDS011;9163;48.818;8.976;2023-05-24T04:27:35;9.90;;;4.90;;
15936;SDS011;9163;48.818;8.976;2023-05-24T04:30:02;11.43;;;5.07;;
15936;SDS011;9163;48.818;8.976;2023-05-24T04:32:31;13.87;;;4.70;;
15936;SDS011;9163;48.818;8.976;2023-05-24T04:34:59;13.13;;;4.60;;
15936;SDS011;9163;48.818;8.976;2023-05-24T04:37:27;9.30;;;4.77;;
15936;SDS011;9163;48.818;8.976;2023-05-24T04:39:56;12.27;;;4.53;;
15936;SDS011;9163;48.818;8.976;2023-05-24T04:42:23;11.50;;;4.57;;
15936;SDS011;9163;48.818;8.976;2023-05-24T04:44:51;13.57;;;4.83;;
15936;SDS011;9163;48.818;8.976;2023-05-24T04:47:18;13.60;;;5.40;;
15936;SDS011;9163;48.818;8.976;2023-05-24T04:49:47;12.30;;;4.60;;
15936;SDS011;9163;48.818;8.976;2023-05-24T04:52:15;11.50;;;4.50;;
15936;SDS011;9163;48.818;8.976;2023-05-24T04:54:42;9.87;;;4.87;;
15936;SDS011;9163;48.818;8.976;2023-05-24T04:57:10;10.00;;;4.50;;
15936;SDS011;9163;48.818;8.976;2023-05-24T04:59:37;11.80;;;4.90;;
15936;SDS011;9163;48.818;8.976;2023-05-24T05:02:04;13.67;;;4.73;;
15936;SDS011;9163;48.818;8.976;2023-05-24T05:04:32;9.00;;;4.77;;
15936;SDS011;9163;48.818;8.976;2023-05-24T05:07:00;11.00;;;4.57;;
15936;SDS011;9163;48.818;8.976;2023-05-24T05:09:28;11.37;;;4.17;;
15936;SDS011;9163;48.818;8.976;2023-05-24T05:11:55;8.47;;;4.50;;
15936;SDS011;9163;48.818;8.976;2023-05-24T05:14:22;10.50;;;4.40;;
15936;SDS011;9163;48.818;8.976;2023-05-24T05:16:50;9.67;;;4.57;;
15936;SDS011;9163;48.818;8.976;2023-05-24T05:19:17;9.90;;;4.23;;
15936;SDS011;9163;48.818;8.976;2023-05-24T05:21:44;11.13;;;4.37;;
15936;SDS011;9163;48.818;8.976;2023-05-24T05:24:13;14.57;;;4.70;;
15936;SDS011;9163;48.818;8.976;2023-05-24T05:26:41;10.37;;;4.10;;
15936;SDS011;9163;48.818;8.976;2023-05-24T05:29:08;12.30;;;4.00;;
15936;SDS011;9163;48.818;8.976;2023-05-24T05:31:35;11.97;;;4.07;;
15936;SDS011;9163;48.818;8.976;2023-05-24T05:34:04;11.03;;;4.50;;
15936;SDS011;9163;48.818;8.976;2023-05-24T05:36:34;10.57;;;4.00;;
15936;SDS011;9163;48.818;8.976;2023-05-24T05:39:05;12.27;;;4.13;;
15936;SDS011;9163;48.818;8.976;2023-05-24T05:41:37;11.37;;;4.60;;
15936;SDS011;9163;48.818;8.976;2023-05-24T05:44:06;13.23;;;4.90;;
15936;SDS011;9163;48.818;8.976;2023-05-24T05:46:34;12.47;;;5.03;;
15936;SDS011;9163;48.818;8.976;2023-05-24T05:49:01;11.13;;;4.50;;
15936;SDS011;9163;48.818;8.976;2023-05-24T05:51:28;12.23;;;4.40;;
15936;SDS011;9163;48.818;8.976;2023-05-24T05:53:56;11.30;;;5.23;;
15936;SDS011;9163;48.818;8.976;2023-05-24T05:56:23;10.67;;;4.13;;
15936;SDS011;9163;48.818;8.976;2023-05-24T05:58:53;10.47;;;4.10;;
15936;SDS011;9163;48.818;8.976;2023-05-24T06:01:20;10.33;;;4.37;;
15936;SDS011;9163;48.818;8.976;2023-05-24T06:03:49;13.73;;;4.20;;
15936;SDS011;9163;48.818;8.976;2023-05-24T06:06:16;11.80;;;4.30;;
15936;SDS011;9163;48.818;8.976;2023-05-24T06:08:44;11.80;;;4.10;;
15936;SDS011;9163;48.818;8.976;2023-05-24T06:11:11;10.03;;;4.03;;
15936;SDS011;9163;48.818;8.976;2023-05-24T06:13:38;13.03;;;4.27;;
15936;SDS011;9163;48.818;8.976;2023-05-24T06:16:07;10.00;;;4.30;;
15936;SDS011;9163;48.818;8.976;2023-05-24T06:18:34;14.70;;;4.30;;
15936;SDS011;9163;48.818;8.976;2023-05-24T06:21:02;10.17;;;4.40;;
15936;SDS011;9163;48.818;8.976;2023-05-24T06:23:29;9.43;;;4.33;;
15936;SDS011;9163;48.818;8.976;2023-05-24T06:25:56;14.13;;;4.43;;
15936;SDS011;9163;48.818;8.976;2023-05-24T06:28:25;10.07;;;3.70;;
15936;SDS011;9163;48.818;8.976;2023-05-24T06:30:53;11.20;;;4.13;;
15936;SDS011;9163;48.818;8.976;2023-05-24T06:33:21;11.77;;;4.40;;
15936;SDS011;9163;48.818;8.976;2023-05-24T06:35:48;9.90;;;3.97;;
15936;SDS011;9163;48.818;8.976;2023-05-24T06:38:16;11.73;;;4.40;;
15936;SDS011;9163;48.818;8.976;2023-05-24T06:40:43;11.13;;;4.23;;
15936;SDS011;9163;48.818;8.976;2023-05-24T06:43:10;11.97;;;4.00;;
15936;SDS011;9163;48.818;8.976;2023-05-24T06:45:37;11.47;;;4.37;;
15936;SDS011;9163;48.818;8.976;2023-05-24T06:48:05;13.43;;;4.60;;
15936;SDS011;9163;48.818;8.976;2023-05-24T06:50:33;11.90;;;4.00;;
15936;SDS011;9163;48.818;8.976;2023-05-24T06:53:02;8.67;;;3.97;;
15936;SDS011;9163;48.818;8.976;2023-05-24T06:55:30;8.57;;;4.13;;
15936;SDS011;9163;48.818;8.976;2023-05-24T06:57:57;11.93;;;4.30;;
15936;SDS011;9163;48.818;8.976;2023-05-24T07:00:25;9.70;;;4.47;;
15936;SDS011;9163;48.818;8.976;2023-05-24T07:02:52;11.63;;;4.33;;
15936;SDS011;9163;48.818;8.976;2023-05-24T07:05:19;15.07;;;4.47;;
15936;SDS011;9163;48.818;8.976;2023-05-24T07:07:49;13.47;;;4.40;;
15936;SDS011;9163;48.818;8.976;2023-05-24T07:10:16;10.80;;;4.77;;
15936;SDS011;9163;48.818;8.976;2023-05-24T07:12:43;10.30;;;4.47;;
15936;SDS011;9163;48.818;8.976;2023-05-24T07:15:10;11.50;;;4.30;;
15936;SDS011;9163;48.818;8.976;2023-05-24T07:17:38;10.97;;;3.83;;
15936;SDS011;9163;48.818;8.976;2023-05-24T07:20:05;10.93;;;4.40;;
15936;SDS011;9163;48.818;8.976;2023-05-24T07:22:35;12.40;;;4.50;;
15936;SDS011;9163;48.818;8.976;2023-05-24T07:25:04;15.67;;;4.83;;
15936;SDS011;9163;48.818;8.976;2023-05-24T07:27:32;10.20;;;4.40;;
15936;SDS011;9163;48.818;8.976;2023-05-24T07:30:00;12.73;;;4.27;;
15936;SDS011;9163;48.818;8.976;2023-05-24T07:32:27;11.40;;;4.33;;
15936;SDS011;9163;48.818;8.976;2023-05-24T07:34:55;12.90;;;4.27;;
15936;SDS011;9163;48.818;8.976;2023-05-24T07:37:22;11.20;;;4.30;;
15936;SDS011;9163;48.818;8.976;2023-05-24T07:39:49;11.23;;;4.50;;
15936;SDS011;9163;48.818;8.976;2023-05-24T07:42:18;14.03;;;4.57;;
15936;SDS011;9163;48.818;8.976;2023-05-24T07:44:46;11.63;;;4.40;;
15936;SDS011;9163;48.818;8.976;2023-05-24T07:47:13;14.33;;;4.50;;
15936;SDS011;9163;48.818;8.976;2023-05-24T07:49:40;12.60;;;4.63;;
15936;SDS011;9163;48.818;8.976;2023-05-24T07:52:07;9.57;;;4.10;;
15936;SDS011;9163;48.818;8.976;2023-05-24T07:54:34;10.80;;;4.10;;
15936;SDS011;9163;48.818;8.976;2023-05-24T07:57:02;10.30;;;4.50;;
15936;SDS011;9163;48.818;8.976;2023-05-24T07:59:31;10.23;;;4.30;;
15936;SDS011;9163;48.818;8.976;2023-05-24T08:01:58;9.90;;;4.30;;
15936;SDS011;9163;48.818;8.976;2023-05-24T08:04:28;12.03;;;4.17;;
15936;SDS011;9163;48.818;8.976;2023-05-24T08:06:55;12.47;;;4.20;;
15936;SDS011;9163;48.818;8.976;2023-05-24T08:09:23;11.47;;;4.63;;
15936;SDS011;9163;48.818;8.976;2023-05-24T08:11:52;10.47;;;4.30;;
15936;SDS011;9163;48.818;8.976;2023-05-24T08:14:19;14.13;;;4.10;;
15936;SDS011;9163;48.818;8.976;2023-05-24T08:16:48;10.50;;;4.07;;
15936;SDS011;9163;48.818;8.976;2023-05-24T08:19:15;9.27;;;3.93;;
15936;SDS011;9163;48.818;8.976;2023-05-24T08:21:42;13.03;;;4.30;;
15936;SDS011;9163;48.818;8.976;2023-05-24T08:24:10;11.83;;;4.57;;
15936;SDS011;9163;48.818;8.976;2023-05-24T08:26:37;9.37;;;4.07;;
15936;SDS011;9163;48.818;8.976;2023-05-24T08:29:04;11.70;;;4.47;;
15936;SDS011;9163;48.818;8.976;2023-05-24T08:31:32;11.10;;;3.90;;
15936;SDS011;9163;48.818;8.976;2023-05-24T08:34:00;10.97;;;4.30;;
15936;SDS011;9163;48.818;8.976;2023-05-24T08:36:28;9.97;;;4.20;;
15936;SDS011;9163;48.818;8.976;2023-05-24T08:38:55;11.60;;;4.80;;
15936;SDS011;9163;48.818;8.976;2023-05-24T08:41:24;11.50;;;4.57;;
15936;SDS011;9163;48.818;8.976;2023-05-24T08:43:51;9.10;;;4.57;;
15936;SDS011;9163;48.818;8.976;2023-05-24T08:46:22;11.60;;;3.90;;
15936;SDS011;9163;48.818;8.976;2023-05-24T08:48:50;9.33;;;4.03;;
15936;SDS011;9163;48.818;8.976;2023-05-24T08:51:19;13.20;;;4.63;;
15936;SDS011;9163;48.818;8.976;2023-05-24T08:53:47;10.27;;;4.53;;
15936;SDS011;9163;48.818;8.976;2023-05-24T08:56:16;12.23;;;4.30;;
15936;SDS011;9163;48.818;8.976;2023-05-24T08:58:44;12.00;;;4.37;;
15936;SDS011;9163;48.818;8.976;2023-05-24T09:01:12;11.53;;;4.40;;
15936;SDS011;9163;48.818;8.976;2023-05-24T09:03:39;13.67;;;4.97;;
15936;SDS011;9163;48.818;8.976;2023-05-24T09:06:08;9.27;;;4.47;;
15936;SDS011;9163;48.818;8.976;2023-05-24T09:08:39;11.37;;;4.87;;
15936;SDS011;9163;48.818;8.976;2023-05-24T09:11:07;11.00;;;4.30;;
15936;SDS011;9163;48.818;8.976;2023-05-24T09:13:34;11.23;;;4.53;;
15936;SDS011;9163;48.818;8.976;2023-05-24T09:16:02;10.90;;;4.33;;
15936;SDS011;9163;48.818;8.976;2023-05-24T09:18:31;12.90;;;4.43;;
15936;SDS011;9163;48.818;8.976;2023-05-24T09:20:58;12.70;;;4.70;;
15936;SDS011;9163;48.818;8.976;2023-05-24T09:23:25;10.63;;;4.77;;
15936;SDS011;9163;48.818;8.976;2023-05-24T09:25:54;12.73;;;4.53;;
15936;SDS011;9163;48.818;8.976;2023-05-24T09:28:21;12.70;;;4.53;;
15936;SDS011;9163;48.818;8.976;2023-05-24T09:30:59;11.57;;;4.83;;
15936;SDS011;9163;48.818;8.976;2023-05-24T09:33:27;10.10;;;4.30;;
15936;SDS011;9163;48.818;8.976;2023-05-24T09:35:57;14.50;;;4.63;;
15936;SDS011;9163;48.818;8.976;2023-05-24T09:38:25;11.43;;;4.60;;
15936;SDS011;9163;48.818;8.976;2023-05-24T09:41:01;10.90;;;4.67;;
15936;SDS011;9163;48.818;8.976;2023-05-24T09:43:29;11.67;;;4.43;;
15936;SDS011;9163;48.818;8.976;2023-05-24T09:46:00;11.77;;;4.80;;
15936;SDS011;9163;48.818;8.976;2023-05-24T09:48:29;11.67;;;4.90;;
15936;SDS011;9163;48.818;8.976;2023-05-24T09:50:58;10.00;;;4.63;;
15936;SDS011;9163;48.818;8.976;2023-05-24T09:53:29;12.23;;;4.80;;
15936;SDS011;9163;48.818;8.976;2023-05-24T09:55:58;12.67;;;4.70;;
15936;SDS011;9163;48.818;8.976;2023-05-24T09:58:29;10.80;;;4.73;;
15936;SDS011;9163;48.818;8.976;2023-05-24T10:01:04;11.83;;;4.43;;
15936;SDS011;9163;48.818;8.976;2023-05-24T10:03:33;9.57;;;4.23;;
15936;SDS011;9163;48.818;8.976;2023-05-24T10:06:01;12.10;;;4.33;;
15936;SDS011;9163;48.818;8.976;2023-05-24T10:08:32;14.30;;;4.83;;
15936;SDS011;9163;48.818;8.976;2023-05-24T10:11:01;12.97;;;4.20;;
15936;SDS011;9163;48.818;8.976;2023-05-24T10:13:31;14.57;;;4.67;;
15936;SDS011;9163;48.818;8.976;2023-05-24T10:16:00;9.73;;;4.50;;
15936;SDS011;9163;48.818;8.976;2023-05-24T10:18:27;12.13;;;5.27;;
15936;SDS011;9163;48.818;8.976;2023-05-24T10:20:55;15.30;;;4.50;;
15936;SDS011;9163;48.818;8.976;2023-05-24T10:23:23;13.37;;;4.90;;
15936;SDS011;9163;48.818;8.976;2023-05-24T10:25:55;10.73;;;4.43;;
15936;SDS011;9163;48.818;8.976;2023-05-24T10:28:30;13.20;;;4.30;;
15936;SDS011;9163;48.818;8.976;2023-05-24T10:31:01;11.33;;;4.77;;
15936;SDS011;9163;48.818;8.976;2023-05-24T10:33:33;13.47;;;4.27;;
15936;SDS011;9163;48.818;8.976;2023-05-24T10:36:03;13.03;;;4.83;;
15936;SDS011;9163;48.818;8.976;2023-05-24T10:38:32;10.17;;;4.30;;
15936;SDS011;9163;48.818;8.976;2023-05-24T10:41:00;11.10;;;4.20;;
15936;SDS011;9163;48.818;8.976;2023-05-24T10:43:27;14.07;;;4.70;;
15936;SDS011;9163;48.818;8.976;2023-05-24T10:45:56;15.10;;;5.17;;
15936;SDS011;9163;48.818;8.976;2023-05-24T10:48:33;10.03;;;4.27;;
15936;SDS011;9163;48.818;8.976;2023-05-24T10:54:09;14.17;;;4.47;;
15936;SDS011;9163;48.818;8.976;2023-05-24T10:56:41;11.87;;;4.23;;
15936;SDS011;9163;48.818;8.976;2023-05-24T10:59:22;11.37;;;4.10;;
15936;SDS011;9163;48.818;8.976;2023-05-24T11:01:56;12.73;;;4.30;;
15936;SDS011;9163;48.818;8.976;2023-05-24T11:04:25;10.43;;;4.30;;
15936;SDS011;9163;48.818;8.976;2023-05-24T11:06:56;11.53;;;4.07;;
15936;SDS011;9163;48.818;8.976;2023-05-24T11:09:27;11.80;;;4.33;;
15936;SDS011;9163;48.818;8.976;2023-05-24T11:11:55;9.47;;;4.40;;
15936;SDS011;9163;48.818;8.976;2023-05-24T11:14:26;10.70;;;3.80;;
15936;SDS011;9163;48.818;8.976;2023-05-24T11:16:57;9.27;;;4.37;;
15936;SDS011;9163;48.818;8.976;2023-05-24T11:19:29;10.13;;;3.77;;
15936;SDS011;9163;48.818;8.976;2023-05-24T11:21:58;11.63;;;3.90;;
15936;SDS011;9163;48.818;8.976;2023-05-24T11:24:27;11.27;;;4.10;;
15936;SDS011;9163;48.818;8.976;2023-05-24T11:26:54;14.30;;;3.97;;
15936;SDS011;9163;48.818;8.976;2023-05-24T11:29:22;9.53;;;3.80;;
15936;SDS011;9163;48.818;8.976;2023-05-24T11:31:50;10.90;;;4.03;;
15936;SDS011;9163;48.818;8.976;2023-05-24T11:34:20;11.70;;;3.90;;
15936;SDS011;9163;48.818;8.976;2023-05-24T11:36:48;10.77;;;3.70;;
15936;SDS011;9163;48.818;8.976;2023-05-24T11:39:17;12.07;;;3.73;;
15936;SDS011;9163;48.818;8.976;2023-05-24T11:41:44;10.57;;;3.50;;
15936;SDS011;9163;48.818;8.976;2023-05-24T11:44:15;10.17;;;3.87;;
15936;SDS011;9163;48.818;8.976;2023-05-24T11:46:43;8.07;;;3.53;;
15936;SDS011;9163;48.818;8.976;2023-05-24T11:49:11;9.07;;;3.37;;
15936;SDS011;9163;48.818;8.976;2023-05-24T11:51:41;9.30;;;3.27;;
15936;SDS011;9163;48.818;8.976;2023-05-24T11:54:08;8.43;;;3.27;;
15936;SDS011;9163;48.818;8.976;2023-05-24T11:56:36;7.63;;;3.60;;
15936;SDS011;9163;48.818;8.976;2023-05-24T11:59:08;10.67;;;3.80;;
15936;SDS011;9163;48.818;8.976;2023-05-24T12:01:39;9.07;;;3.50;;
15936;SDS011;9163;48.818;8.976;2023-05-24T12:04:07;9.60;;;3.53;;
15936;SDS011;9163;48.818;8.976;2023-05-24T12:06:36;8.30;;;3.43;;
15936;SDS011;9163;48.818;8.976;2023-05-24T12:09:06;8.43;;;3.77;;
15936;SDS011;9163;48.818;8.976;2023-05-24T12:11:38;7.80;;;3.70;;
15936;SDS011;9163;48.818;8.976;2023-05-24T12:14:06;8.83;;;3.80;;
15936;SDS011;9163;48.818;8.976;2023-05-24T12:16:37;9.97;;;4.07;;
15936;SDS011;9163;48.818;8.976;2023-05-24T12:19:04;9.60;;;3.43;;
15936;SDS011;9163;48.818;8.976;2023-05-24T12:21:32;9.03;;;3.73;;
15936;SDS011;9163;48.818;8.976;2023-05-24T12:24:08;10.67;;;4.00;;
15936;SDS011;9163;48.818;8.976;2023-05-24T12:26:36;7.10;;;3.90;;
15936;SDS011;9163;48.818;8.976;2023-05-24T12:29:06;8.73;;;3.73;;
15936;SDS011;9163;48.818;8.976;2023-05-24T12:31:36;11.00;;;3.73;;
15936;SDS011;9163;48.818;8.976;2023-05-24T12:34:03;7.83;;;3.67;;
15936;SDS011;9163;48.818;8.976;2023-05-24T12:36:32;10.07;;;3.77;;
15936;SDS011;9163;48.818;8.976;2023-05-24T12:39:04;8.97;;;3.80;;
15936;SDS011;9163;48.818;8.976;2023-05-24T12:41:48;8.50;;;3.80;;
15936;SDS011;9163;48.818;8.976;2023-05-24T12:44:16;8.43;;;3.53;;
15936;SDS011;9163;48.818;8.976;2023-05-24T12:46:46;9.32;;;3.00;;
15936;SDS011;9163;48.818;8.976;2023-05-24T12:49:15;9.60;;;3.40;;
15936;SDS011;9163;48.818;8.976;2023-05-24T12:51:42;9.17;;;3.17;;
15936;SDS011;9163;48.818;8.976;2023-05-24T12:54:10;13.27;;;3.90;;
15936;SDS011;9163;48.818;8.976;2023-05-24T12:56:38;11.20;;;3.42;;
15936;SDS011;9163;48.818;8.976;2023-05-24T12:59:05;6.53;;;3.13;;
15936;SDS011;9163;48.818;8.976;2023-05-24T13:01:33;8.18;;;3.33;;
15936;SDS011;9163;48.818;8.976;2023-05-24T13:04:00;7.10;;;3.23;;
15936;SDS011;9163;48.818;8.976;2023-05-24T13:06:27;9.40;;;3.58;;
15936;SDS011;9163;48.818;8.976;2023-05-24T13:08:55;8.60;;;3.58;;
15936;SDS011;9163;48.818;8.976;2023-05-24T13:11:22;12.43;;;3.30;;
15936;SDS011;9163;48.818;8.976;2023-05-24T13:13:51;5.83;;;3.10;;
15936;SDS011;9163;48.818;8.976;2023-05-24T13:16:18;8.27;;;2.97;;
15936;SDS011;9163;48.818;8.976;2023-05-24T13:18:46;7.88;;;2.75;;
15936;SDS011;9163;48.818;8.976;2023-05-24T13:21:13;4.95;;;2.50;;
15936;SDS011;9163;48.818;8.976;2023-05-24T13:23:41;6.75;;;2.75;;
15936;SDS011;9163;48.818;8.976;2023-05-24T13:26:08;10.55;;;3.15;;
15936;SDS011;9163;48.818;8.976;2023-05-24T13:28:36;6.80;;;2.72;;
15936;SDS011;9163;48.818;8.976;2023-05-24T13:31:05;8.15;;;2.95;;
15936;SDS011;9163;48.818;8.976;2023-05-24T13:33:32;9.50;;;3.30;;
15936;SDS011;9163;48.818;8.976;2023-05-24T13:35:59;6.90;;;2.70;;
15936;SDS011;9163;48.818;8.976;2023-05-24T13:38:27;6.78;;;2.72;;
15936;SDS011;9163;48.818;8.976;2023-05-24T13:40:54;8.50;;;2.95;;
15936;SDS011;9163;48.818;8.976;2023-05-24T13:43:22;8.20;;;2.70;;
15936;SDS011;9163;48.818;8.976;2023-05-24T13:45:49;8.45;;;3.15;;
15936;SDS011;9163;48.818;8.976;2023-05-24T13:48:18;7.90;;;2.88;;
15936;SDS011;9163;48.818;8.976;2023-05-24T13:50:45;9.77;;;2.97;;
15936;SDS011;9163;48.818;8.976;2023-05-24T13:53:12;7.13;;;2.90;;
15936;SDS011;9163;48.818;8.976;2023-05-24T13:55:39;6.80;;;2.80;;
15936;SDS011;9163;48.818;8.976;2023-05-24T13:58:07;7.55;;;3.10;;
15936;SDS011;9163;48.818;8.976;2023-05-24T14:00:34;5.63;;;2.90;;
15936;SDS011;9163;48.818;8.976;2023-05-24T14:03:02;5.72;;;2.75;;
15936;SDS011;9163;48.818;8.976;2023-05-24T14:05:31;7.10;;;2.80;;
15936;SDS011;9163;48.818;8.976;2023-05-24T14:07:59;5.50;;;2.38;;
15936;SDS011;9163;48.818;8.976;2023-05-24T14:10:31;7.88;;;2.60;;
15936;SDS011;9163;48.818;8.976;2023-05-24T14:13:00;9.18;;;2.67;;
15936;SDS011;9163;48.818;8.976;2023-05-24T14:15:28;7.00;;;2.87;;
15936;SDS011;9163;48.818;8.976;2023-05-24T14:17:55;5.80;;;2.90;;
15936;SDS011;9163;48.818;8.976;2023-05-24T14:20:23;7.30;;;2.73;;
15936;SDS011;9163;48.818;8.976;2023-05-24T14:22:51;10.37;;;2.73;;
15936;SDS011;9163;48.818;8.976;2023-05-24T14:25:18;6.87;;;2.70;;
15936;SDS011;9163;48.818;8.976;2023-05-24T14:27:46;9.57;;;3.00;;
15936;SDS011;9163;48.818;8.976;2023-05-24T14:30:13;7.17;;;2.97;;
15936;SDS011;9163;48.818;8.976;2023-05-24T14:32:41;7.70;;;2.83;;
15936;SDS011;9163;48.818;8.976;2023-05-24T14:35:08;8.43;;;2.90;;
15936;SDS011;9163;48.818;8.976;2023-05-24T14:37:35;7.40;;;2.87;;
15936;SDS011;9163;48.818;8.976;2023-05-24T14:40:05;8.33;;;2.93;;
15936;SDS011;9163;48.818;8.976;2023-05-24T14:42:32;10.77;;;2.93;;
15936;SDS011;9163;48.818;8.976;2023-05-24T14:45:00;6.47;;;2.83;;
15936;SDS011;9163;48.818;8.976;2023-05-24T14:47:28;8.00;;;2.93;;
15936;SDS011;9163;48.818;8.976;2023-05-24T14:49:55;8.27;;;2.60;;
15936;SDS011;9163;48.818;8.976;2023-05-24T14:52:22;8.00;;;2.70;;
15936;SDS011;9163;48.818;8.976;2023-05-24T14:54:49;9.70;;;2.80;;
15936;SDS011;9163;48.818;8.976;2023-05-24T14:57:18;9.07;;;2.80;;
15936;SDS011;9163;48.818;8.976;2023-05-24T14:59:46;6.13;;;2.40;;
15936;SDS011;9163;48.818;8.976;2023-05-24T15:02:13;6.80;;;2.90;;
15936;SDS011;9163;48.818;8.976;2023-05-24T15:04:40;8.07;;;2.67;;